PWSweather.com
Personal Weather Stations
Station Observations
KMIEASTT1
Tawas Bay, East Tawas, MI 48730

Tawas BayEast Tawas, MI 48730

Lat: 44.28, Lon: -83.48

Elevation: 600

Station Type: Davis VantagePro

http://www.tawasbayweather.com

High Low Average
Temperature 81.1°F27.3°C 64.3°F17.9°C 73.9°F23.3°C
Dew Point 74.7°F23.7°C 60.7°F15.9°C 70.8°F21.6°C
Winds 9.0 mph 14.5 kmh Calm Calm 2.0 mph S3.2 kmh S
Wind Gusts 11.0 mph17.7 kmh -- 4.0 mph6.4 kmh
Humidity 96% 77% 90%
Pressure 29.89 in1012.2 mb 29.77 in1008.1 mb -
Precipitation 0.00 in0.0 mm - -
Hour Temp Dew Point Humidity Winds Wind Gusts Pressure Precip Precip Rate Daily Precip Total
12:00 AM 75.4°F24.1°C 70.9°F21.6°C 86% Calm Calm -- 29.90 in1012.5 mb 0.00 in0.0 mm 0.00 in0.0 mm 0.00 in0.0 mm
12:15 AM 74.9°F23.8°C 71.1°F21.7°C 88% Calm Calm -- 29.89 in1012.2 mb 0.00 in0.0 mm 0.00 in0.0 mm 0.00 in0.0 mm
12:30 AM 75.1°F23.9°C 71.0°F21.7°C 87% Calm Calm -- 29.89 in1012.2 mb 0.00 in0.0 mm 0.00 in0.0 mm 0.00 in0.0 mm
12:45 AM 74.1°F23.4°C 71.0°F21.7°C 90% Calm Calm -- 29.89 in1012.2 mb 0.00 in0.0 mm 0.00 in0.0 mm 0.00 in0.0 mm
01:00 AM 74.9°F23.8°C 72.4°F22.4°C 92% Calm Calm -- 29.89 in1012.2 mb 0.00 in0.0 mm 0.00 in0.0 mm 0.00 in0.0 mm
01:15 AM 75.2°F24.0°C 72.7°F22.6°C 92% Calm Calm -- 29.89 in1012.2 mb 0.00 in0.0 mm 0.00 in0.0 mm 0.00 in0.0 mm
01:30 AM 75.3°F24.1°C 73.1°F22.8°C 93% Calm Calm -- 29.89 in1012.2 mb 0.00 in0.0 mm 0.00 in0.0 mm 0.00 in0.0 mm
01:45 AM 75.5°F24.2°C 73.3°F22.9°C 93% Calm Calm -- 29.89 in1012.2 mb 0.00 in0.0 mm 0.00 in0.0 mm 0.00 in0.0 mm
02:00 AM 75.4°F24.1°C 73.6°F23.1°C 94% 2.0 mph SE3.2 kmh SE 3.0 mph4.8 kmh 29.88 in1011.9 mb 0.00 in0.0 mm 0.00 in0.0 mm 0.00 in0.0 mm
02:15 AM 75.5°F24.2°C 73.3°F22.9°C 93% 2.0 mph SSE3.2 kmh SSE 3.0 mph4.8 kmh 29.88 in1011.9 mb 0.00 in0.0 mm 0.00 in0.0 mm 0.00 in0.0 mm
02:30 AM 75.4°F24.1°C 73.6°F23.1°C 94% 2.0 mph SSE3.2 kmh SSE 4.0 mph6.4 kmh 29.88 in1011.9 mb 0.00 in0.0 mm 0.00 in0.0 mm 0.00 in0.0 mm
02:45 AM 75.2°F24.0°C 73.7°F23.2°C 95% Calm Calm 2.0 mph3.2 kmh 29.87 in1011.5 mb 0.00 in0.0 mm 0.00 in0.0 mm 0.00 in0.0 mm
03:00 AM 75.0°F23.9°C 73.5°F23.1°C 95% Calm Calm -- 29.87 in1011.5 mb 0.00 in0.0 mm 0.00 in0.0 mm 0.00 in0.0 mm
03:15 AM 74.2°F23.4°C 72.7°F22.6°C 95% Calm Calm -- 29.87 in1011.5 mb 0.00 in0.0 mm 0.00 in0.0 mm 0.00 in0.0 mm
03:30 AM 73.9°F23.3°C 72.1°F22.3°C 94% Calm Calm -- 29.86 in1011.2 mb 0.00 in0.0 mm 0.00 in0.0 mm 0.00 in0.0 mm
03:45 AM 73.4°F23.0°C 71.9°F22.2°C 95% Calm Calm -- 29.86 in1011.2 mb 0.00 in0.0 mm 0.00 in0.0 mm 0.00 in0.0 mm
04:00 AM 72.9°F22.7°C 71.4°F21.9°C 95% Calm Calm -- 29.86 in1011.2 mb 0.00 in0.0 mm 0.00 in0.0 mm 0.00 in0.0 mm
04:15 AM 72.3°F22.4°C 70.8°F21.6°C 95% Calm Calm 2.0 mph3.2 kmh 29.86 in1011.2 mb 0.00 in0.0 mm 0.00 in0.0 mm 0.00 in0.0 mm
04:30 AM 71.9°F22.2°C 70.4°F21.3°C 95% Calm Calm 1.0 mph1.6 kmh 29.86 in1011.2 mb 0.00 in0.0 mm 0.00 in0.0 mm 0.00 in0.0 mm
04:45 AM 72.2°F22.3°C 70.7°F21.5°C 95% 3.0 mph SW4.8 kmh SW 3.0 mph4.8 kmh 29.86 in1011.2 mb 0.00 in0.0 mm 0.00 in0.0 mm 0.00 in0.0 mm
05:00 AM 72.2°F22.3°C 70.7°F21.5°C 95% Calm Calm 1.0 mph1.6 kmh 29.85 in1010.8 mb 0.00 in0.0 mm 0.00 in0.0 mm 0.00 in0.0 mm
05:15 AM 72.0°F22.2°C 70.5°F21.4°C 95% Calm Calm -- 29.85 in1010.8 mb 0.00 in0.0 mm 0.00 in0.0 mm 0.00 in0.0 mm
05:30 AM 72.5°F22.5°C 71.0°F21.7°C 95% Calm Calm 1.0 mph1.6 kmh 29.85 in1010.8 mb 0.00 in0.0 mm 0.00 in0.0 mm 0.00 in0.0 mm
05:45 AM 72.5°F22.5°C 70.7°F21.5°C 94% 1.0 mph W1.6 kmh W 3.0 mph4.8 kmh 29.85 in1010.8 mb 0.00 in0.0 mm 0.00 in0.0 mm 0.00 in0.0 mm
06:00 AM 72.8°F22.7°C 70.7°F21.5°C 93% Calm Calm 3.0 mph4.8 kmh 29.85 in1010.8 mb 0.00 in0.0 mm 0.00 in0.0 mm 0.00 in0.0 mm
06:15 AM 72.8°F22.7°C 70.7°F21.5°C 93% 2.0 mph W3.2 kmh W 3.0 mph4.8 kmh 29.86 in1011.2 mb 0.00 in0.0 mm 0.00 in0.0 mm 0.00 in0.0 mm
06:30 AM 72.5°F22.5°C 70.4°F21.3°C 93% 1.0 mph WNW1.6 kmh WNW 3.0 mph4.8 kmh 29.86 in1011.2 mb 0.00 in0.0 mm 0.00 in0.0 mm 0.00 in0.0 mm
06:45 AM 72.4°F22.4°C 70.3°F21.3°C 93% Calm Calm 1.0 mph1.6 kmh 29.85 in1010.8 mb 0.00 in0.0 mm 0.00 in0.0 mm 0.00 in0.0 mm
07:00 AM 72.2°F22.3°C 70.1°F21.2°C 93% Calm Calm 1.0 mph1.6 kmh 29.85 in1010.8 mb 0.00 in0.0 mm 0.00 in0.0 mm 0.00 in0.0 mm
07:15 AM 72.3°F22.4°C 70.2°F21.2°C 93% 2.0 mph WNW3.2 kmh WNW 5.0 mph8.0 kmh 29.85 in1010.8 mb 0.00 in0.0 mm 0.00 in0.0 mm 0.00 in0.0 mm
07:30 AM 72.5°F22.5°C 70.4°F21.3°C 93% 1.0 mph W1.6 kmh W 4.0 mph6.4 kmh 29.85 in1010.8 mb 0.00 in0.0 mm 0.00 in0.0 mm 0.00 in0.0 mm
07:45 AM 72.9°F22.7°C 70.8°F21.6°C 93% Calm Calm 1.0 mph1.6 kmh 29.85 in1010.8 mb 0.00 in0.0 mm 0.00 in0.0 mm 0.00 in0.0 mm
08:00 AM 73.7°F23.2°C 71.2°F21.8°C 92% Calm Calm 1.0 mph1.6 kmh 29.85 in1010.8 mb 0.00 in0.0 mm 0.00 in0.0 mm 0.00 in0.0 mm
08:15 AM 74.0°F23.3°C 71.5°F21.9°C 92% 3.0 mph WSW4.8 kmh WSW 5.0 mph8.0 kmh 29.85 in1010.8 mb 0.00 in0.0 mm 0.00 in0.0 mm 0.00 in0.0 mm
08:30 AM 74.3°F23.5°C 71.8°F22.1°C 92% 4.0 mph S6.4 kmh S 7.0 mph11.3 kmh 29.85 in1010.8 mb 0.00 in0.0 mm 0.00 in0.0 mm 0.00 in0.0 mm
08:45 AM 74.1°F23.4°C 71.6°F22.0°C 92% 3.0 mph SSW4.8 kmh SSW 3.0 mph4.8 kmh 29.85 in1010.8 mb 0.00 in0.0 mm 0.00 in0.0 mm 0.00 in0.0 mm
09:00 AM 74.3°F23.5°C 72.2°F22.3°C 93% 4.0 mph S6.4 kmh S 6.0 mph9.7 kmh 29.84 in1010.5 mb 0.00 in0.0 mm 0.00 in0.0 mm 0.00 in0.0 mm
09:15 AM 74.3°F23.5°C 72.5°F22.5°C 94% 3.0 mph S4.8 kmh S 5.0 mph8.0 kmh 29.84 in1010.5 mb 0.00 in0.0 mm 0.00 in0.0 mm 0.00 in0.0 mm
09:30 AM 74.8°F23.8°C 72.6°F22.6°C 93% 5.0 mph S8.0 kmh S 6.0 mph9.7 kmh 29.84 in1010.5 mb 0.00 in0.0 mm 0.00 in0.0 mm 0.00 in0.0 mm
09:45 AM 74.7°F23.7°C 72.6°F22.6°C 93% 5.0 mph S8.0 kmh S 8.0 mph12.9 kmh 29.84 in1010.5 mb 0.00 in0.0 mm 0.00 in0.0 mm 0.00 in0.0 mm
10:00 AM 74.8°F23.8°C 73.3°F22.9°C 95% 4.0 mph S6.4 kmh S 6.0 mph9.7 kmh 29.83 in1010.2 mb 0.00 in0.0 mm 0.00 in0.0 mm 0.00 in0.0 mm
10:15 AM 74.9°F23.8°C 73.1°F22.8°C 94% 4.0 mph S6.4 kmh S 7.0 mph11.3 kmh 29.83 in1010.2 mb 0.00 in0.0 mm 0.00 in0.0 mm 0.00 in0.0 mm
10:30 AM 75.6°F24.2°C 73.4°F23.0°C 93% 4.0 mph SSE6.4 kmh SSE 6.0 mph9.7 kmh 29.83 in1010.2 mb 0.00 in0.0 mm 0.00 in0.0 mm 0.00 in0.0 mm
10:45 AM 76.1°F24.5°C 73.6°F23.1°C 92% 3.0 mph SSE4.8 kmh SSE 5.0 mph8.0 kmh 29.83 in1010.2 mb 0.00 in0.0 mm 0.00 in0.0 mm 0.00 in0.0 mm
11:00 AM 76.4°F24.7°C 74.2°F23.4°C 93% 4.0 mph SSE6.4 kmh SSE 6.0 mph9.7 kmh 29.83 in1010.2 mb 0.00 in0.0 mm 0.00 in0.0 mm 0.00 in0.0 mm
11:15 AM 76.8°F24.9°C 74.3°F23.5°C 92% 6.0 mph SE9.7 kmh SE 7.0 mph11.3 kmh 29.83 in1010.2 mb 0.00 in0.0 mm 0.00 in0.0 mm 0.00 in0.0 mm
11:30 AM 76.9°F24.9°C 74.4°F23.6°C 92% 4.0 mph SE6.4 kmh SE 8.0 mph12.9 kmh 29.83 in1010.2 mb 0.00 in0.0 mm 0.00 in0.0 mm 0.00 in0.0 mm
11:45 AM 76.6°F24.8°C 74.1°F23.4°C 92% 7.0 mph SSE11.3 kmh SSE 8.0 mph12.9 kmh 29.83 in1010.2 mb 0.00 in0.0 mm 0.00 in0.0 mm 0.00 in0.0 mm
12:00 PM 76.6°F24.8°C 74.1°F23.4°C 92% 7.0 mph S11.3 kmh S 9.0 mph14.5 kmh 29.83 in1010.2 mb 0.00 in0.0 mm 0.00 in0.0 mm 0.00 in0.0 mm
12:15 PM 76.6°F24.8°C 74.1°F23.4°C 92% 6.0 mph SSE9.7 kmh SSE 9.0 mph14.5 kmh 29.83 in1010.2 mb 0.00 in0.0 mm 0.00 in0.0 mm 0.00 in0.0 mm
12:30 PM 76.6°F24.8°C 74.1°F23.4°C 92% 9.0 mph SSE14.5 kmh SSE 9.0 mph14.5 kmh 29.83 in1010.2 mb 0.00 in0.0 mm 0.00 in0.0 mm 0.00 in0.0 mm
12:45 PM 76.5°F24.7°C 74.0°F23.3°C 92% 7.0 mph S11.3 kmh S 11.0 mph17.7 kmh 29.83 in1010.2 mb 0.00 in0.0 mm 0.00 in0.0 mm 0.00 in0.0 mm
01:00 PM 76.6°F24.8°C 74.1°F23.4°C 92% 9.0 mph SSE14.5 kmh SSE 10.0 mph16.1 kmh 29.82 in1009.8 mb 0.00 in0.0 mm 0.00 in0.0 mm 0.00 in0.0 mm
01:15 PM 76.8°F24.9°C 74.0°F23.3°C 91% 8.0 mph SSE12.9 kmh SSE 11.0 mph17.7 kmh 29.80 in1009.1 mb 0.00 in0.0 mm 0.00 in0.0 mm 0.00 in0.0 mm
01:30 PM 76.8°F24.9°C 74.0°F23.3°C 91% 9.0 mph SSE14.5 kmh SSE 10.0 mph16.1 kmh 29.80 in1009.1 mb 0.00 in0.0 mm 0.00 in0.0 mm 0.00 in0.0 mm
01:45 PM 76.7°F24.8°C 73.9°F23.3°C 91% 7.0 mph SSE11.3 kmh SSE 9.0 mph14.5 kmh 29.81 in1009.5 mb 0.00 in0.0 mm 0.00 in0.0 mm 0.00 in0.0 mm
02:00 PM 76.5°F24.7°C 74.0°F23.3°C 92% 5.0 mph SSE8.0 kmh SSE 7.0 mph11.3 kmh 29.80 in1009.1 mb 0.00 in0.0 mm 0.00 in0.0 mm 0.00 in0.0 mm
02:15 PM 75.5°F24.2°C 71.4°F21.9°C 87% 2.0 mph N3.2 kmh N 3.0 mph4.8 kmh 29.82 in1009.8 mb 0.01 in0.3 mm 0.04 in1.0 mm 0.01 in0.3 mm
02:30 PM 72.9°F22.7°C 69.8°F21.0°C 90% 2.0 mph E3.2 kmh E 2.0 mph3.2 kmh 29.82 in1009.8 mb 0.13 in3.3 mm 0.48 in12.2 mm 0.13 in3.3 mm
02:45 PM 71.0°F21.7°C 69.2°F20.7°C 94% Calm Calm 3.0 mph4.8 kmh 29.81 in1009.5 mb 0.33 in8.4 mm 0.80 in20.3 mm 0.33 in8.4 mm
03:00 PM 71.1°F21.7°C 69.6°F20.9°C 95% Calm Calm 1.0 mph1.6 kmh 29.79 in1008.8 mb 0.33 in8.4 mm 0.00 in0.0 mm 0.33 in8.4 mm
03:15 PM 71.8°F22.1°C 70.6°F21.4°C 96% 6.0 mph SE9.7 kmh SE 8.0 mph12.9 kmh 29.80 in1009.1 mb 0.33 in8.4 mm 0.00 in0.0 mm 0.33 in8.4 mm
03:30 PM 72.6°F22.6°C 69.8°F21.0°C 91% 1.0 mph SSE1.6 kmh SSE 2.0 mph3.2 kmh 29.79 in1008.8 mb 0.21 in5.3 mm 0.00 in0.0 mm 0.33 in8.4 mm
03:45 PM 73.7°F23.2°C 70.3°F21.3°C 89% Calm Calm 2.0 mph3.2 kmh 29.80 in1009.1 mb 0.49 in12.4 mm 1.12 in28.4 mm 0.61 in15.5 mm
04:00 PM 74.7°F23.7°C 70.9°F21.6°C 88% 2.0 mph SSE3.2 kmh SSE 4.0 mph6.4 kmh 29.79 in1008.8 mb 0.28 in7.1 mm 0.00 in0.0 mm 0.61 in15.5 mm
04:15 PM 75.5°F24.2°C 71.0°F21.7°C 86% 2.0 mph SSE3.2 kmh SSE 2.0 mph3.2 kmh 29.81 in1009.5 mb 0.28 in7.1 mm 0.00 in0.0 mm 0.61 in15.5 mm
04:30 PM 74.9°F23.8°C 70.4°F21.3°C 86% 4.0 mph S6.4 kmh S 4.0 mph6.4 kmh 29.79 in1008.8 mb 0.28 in7.1 mm 0.00 in0.0 mm 0.61 in15.5 mm
04:45 PM 74.4°F23.6°C 71.0°F21.7°C 89% 3.0 mph SW4.8 kmh SW 4.0 mph6.4 kmh 29.79 in1008.8 mb 0.28 in7.1 mm 0.00 in0.0 mm 0.61 in15.5 mm
05:00 PM 74.5°F23.6°C 71.1°F21.7°C 89% Calm Calm 1.0 mph1.6 kmh 29.78 in1008.5 mb 0.00 in0.0 mm 0.00 in0.0 mm 0.61 in15.5 mm
05:15 PM 74.8°F23.8°C 71.3°F21.8°C 89% 2.0 mph SE3.2 kmh SE 3.0 mph4.8 kmh 29.78 in1008.5 mb 0.00 in0.0 mm 0.00 in0.0 mm 0.61 in15.5 mm
05:30 PM 76.1°F24.5°C 71.6°F22.0°C 86% Calm Calm 3.0 mph4.8 kmh 29.77 in1008.1 mb 0.00 in0.0 mm 0.00 in0.0 mm 0.61 in15.5 mm
05:45 PM 79.1°F26.2°C 74.2°F23.4°C 85% Calm Calm 2.0 mph3.2 kmh 29.77 in1008.1 mb 0.00 in0.0 mm 0.00 in0.0 mm 0.61 in15.5 mm
06:00 PM 80.6°F27.0°C 74.2°F23.4°C 81% Calm Calm 3.0 mph4.8 kmh 29.78 in1008.5 mb 0.00 in0.0 mm 0.00 in0.0 mm 0.61 in15.5 mm
06:15 PM 81.1°F27.3°C 74.7°F23.7°C 81% 1.0 mph E1.6 kmh E 5.0 mph8.0 kmh 29.77 in1008.1 mb 0.00 in0.0 mm 0.00 in0.0 mm 0.61 in15.5 mm
06:30 PM 79.2°F26.2°C 73.6°F23.1°C 83% 2.0 mph ENE3.2 kmh ENE 10.0 mph16.1 kmh 29.77 in1008.1 mb 0.00 in0.0 mm 0.00 in0.0 mm 0.61 in15.5 mm
06:45 PM 76.2°F24.6°C 72.1°F22.3°C 87% 7.0 mph ESE11.3 kmh ESE 9.0 mph14.5 kmh 29.77 in1008.1 mb 0.00 in0.0 mm 0.00 in0.0 mm 0.61 in15.5 mm
07:00 PM 75.1°F23.9°C 71.6°F22.0°C 89% 5.0 mph ESE8.0 kmh ESE 8.0 mph12.9 kmh 29.78 in1008.5 mb 0.00 in0.0 mm 0.00 in0.0 mm 0.61 in15.5 mm
07:15 PM 75.0°F23.9°C 71.5°F21.9°C 89% 5.0 mph ESE8.0 kmh ESE 7.0 mph11.3 kmh 29.78 in1008.5 mb 0.00 in0.0 mm 0.00 in0.0 mm 0.61 in15.5 mm
07:30 PM 74.8°F23.8°C 70.7°F21.5°C 87% 4.0 mph ESE6.4 kmh ESE 6.0 mph9.7 kmh 29.78 in1008.5 mb 0.00 in0.0 mm 0.00 in0.0 mm 0.61 in15.5 mm
07:45 PM 74.8°F23.8°C 71.3°F21.8°C 89% 4.0 mph SE6.4 kmh SE 7.0 mph11.3 kmh 29.78 in1008.5 mb 0.00 in0.0 mm 0.00 in0.0 mm 0.61 in15.5 mm
08:00 PM 74.4°F23.6°C 71.0°F21.7°C 89% 3.0 mph SE4.8 kmh SE 4.0 mph6.4 kmh 29.79 in1008.8 mb 0.00 in0.0 mm 0.00 in0.0 mm 0.61 in15.5 mm
08:15 PM 74.4°F23.6°C 71.0°F21.7°C 89% 1.0 mph SE1.6 kmh SE 3.0 mph4.8 kmh 29.79 in1008.8 mb 0.00 in0.0 mm 0.00 in0.0 mm 0.61 in15.5 mm
08:30 PM 74.4°F23.6°C 71.0°F21.7°C 89% 2.0 mph SE3.2 kmh SE 3.0 mph4.8 kmh 29.80 in1009.1 mb 0.00 in0.0 mm 0.00 in0.0 mm 0.61 in15.5 mm
08:45 PM 74.1°F23.4°C 69.7°F20.9°C 86% Calm Calm 3.0 mph4.8 kmh 29.80 in1009.1 mb 0.00 in0.0 mm 0.00 in0.0 mm 0.61 in15.5 mm
09:00 PM 74.0°F23.3°C 69.9°F21.1°C 87% 1.0 mph SE1.6 kmh SE 3.0 mph4.8 kmh 29.80 in1009.1 mb 0.00 in0.0 mm 0.00 in0.0 mm 0.61 in15.5 mm
09:15 PM 73.9°F23.3°C 69.5°F20.8°C 86% 1.0 mph W1.6 kmh W 3.0 mph4.8 kmh 29.81 in1009.5 mb 0.00 in0.0 mm 0.00 in0.0 mm 0.61 in15.5 mm
09:30 PM 73.5°F23.1°C 69.4°F20.8°C 87% Calm Calm 4.0 mph6.4 kmh 29.81 in1009.5 mb 0.00 in0.0 mm 0.00 in0.0 mm 0.61 in15.5 mm
09:45 PM 72.6°F22.6°C 68.9°F20.5°C 88% Calm Calm -- 29.82 in1009.8 mb 0.00 in0.0 mm 0.00 in0.0 mm 0.61 in15.5 mm
10:00 PM 71.8°F22.1°C 67.4°F19.7°C 86% Calm Calm 2.0 mph3.2 kmh 29.82 in1009.8 mb 0.00 in0.0 mm 0.00 in0.0 mm 0.61 in15.5 mm
10:15 PM 71.3°F21.8°C 66.6°F19.2°C 85% Calm Calm -- 29.83 in1010.2 mb 0.00 in0.0 mm 0.00 in0.0 mm 0.61 in15.5 mm
10:30 PM 70.9°F21.6°C 63.7°F17.6°C 78% Calm Calm 3.0 mph4.8 kmh 29.84 in1010.5 mb 0.00 in0.0 mm 0.00 in0.0 mm 0.61 in15.5 mm
10:45 PM 70.1°F21.2°C 62.9°F17.2°C 78% Calm Calm 2.0 mph3.2 kmh 29.84 in1010.5 mb 0.00 in0.0 mm 0.00 in0.0 mm 0.61 in15.5 mm
11:00 PM 69.1°F20.6°C 61.6°F16.4°C 77% Calm Calm 2.0 mph3.2 kmh 29.86 in1011.2 mb 0.00 in0.0 mm 0.00 in0.0 mm 0.61 in15.5 mm
11:15 PM 68.3°F20.2°C 61.5°F16.4°C 79% Calm Calm 2.0 mph3.2 kmh 29.86 in1011.2 mb 0.00 in0.0 mm 0.00 in0.0 mm 0.61 in15.5 mm
11:30 PM 67.5°F19.7°C 61.1°F16.2°C 80% Calm Calm -- 29.86 in1011.2 mb 0.00 in0.0 mm 0.00 in0.0 mm 0.61 in15.5 mm
11:45 PM 66.7°F19.3°C 60.7°F15.9°C 81% Calm Calm -- 29.86 in1011.2 mb 0.00 in0.0 mm 0.00 in0.0 mm 0.61 in15.5 mm